sensor_id;sensor_type;location;lat;lon;timestamp;P1;durP1;ratioP1;P2;durP2;ratioP2
20173;SDS011;10246;50.620;7.232;2022-09-21T00:01:50;2.60;;;1.70;;
20173;SDS011;10246;50.620;7.232;2022-09-21T00:04:17;2.47;;;1.57;;
20173;SDS011;10246;50.620;7.232;2022-09-21T00:06:45;2.50;;;1.90;;
20173;SDS011;10246;50.620;7.232;2022-09-21T00:09:12;2.60;;;1.70;;
20173;SDS011;10246;50.620;7.232;2022-09-21T00:11:39;3.03;;;1.70;;
20173;SDS011;10246;50.620;7.232;2022-09-21T00:14:07;3.97;;;1.77;;
20173;SDS011;10246;50.620;7.232;2022-09-21T00:16:36;1.87;;;1.43;;
20173;SDS011;10246;50.620;7.232;2022-09-21T00:19:03;3.00;;;1.70;;
20173;SDS011;10246;50.620;7.232;2022-09-21T00:21:31;2.30;;;1.60;;
20173;SDS011;10246;50.620;7.232;2022-09-21T00:23:59;2.50;;;1.57;;
20173;SDS011;10246;50.620;7.232;2022-09-21T00:26:27;2.53;;;1.73;;
20173;SDS011;10246;50.620;7.232;2022-09-21T00:28:55;3.60;;;2.10;;
20173;SDS011;10246;50.620;7.232;2022-09-21T00:31:23;1.70;;;1.60;;
20173;SDS011;10246;50.620;7.232;2022-09-21T00:33:50;3.63;;;1.70;;
20173;SDS011;10246;50.620;7.232;2022-09-21T00:36:18;3.73;;;2.10;;
20173;SDS011;10246;50.620;7.232;2022-09-21T00:38:48;1.83;;;1.73;;
20173;SDS011;10246;50.620;7.232;2022-09-21T00:41:17;2.73;;;2.10;;
20173;SDS011;10246;50.620;7.232;2022-09-21T00:43:45;2.50;;;1.97;;
20173;SDS011;10246;50.620;7.232;2022-09-21T00:46:14;2.73;;;1.70;;
20173;SDS011;10246;50.620;7.232;2022-09-21T00:48:47;3.07;;;1.87;;
20173;SDS011;10246;50.620;7.232;2022-09-21T00:51:14;6.27;;;2.10;;
20173;SDS011;10246;50.620;7.232;2022-09-21T00:53:42;3.30;;;2.27;;
20173;SDS011;10246;50.620;7.232;2022-09-21T00:56:09;3.87;;;1.93;;
20173;SDS011;10246;50.620;7.232;2022-09-21T00:58:39;4.07;;;2.00;;
20173;SDS011;10246;50.620;7.232;2022-09-21T01:01:10;2.60;;;1.50;;
20173;SDS011;10246;50.620;7.232;2022-09-21T01:03:39;4.50;;;1.80;;
20173;SDS011;10246;50.620;7.232;2022-09-21T01:06:10;3.60;;;2.57;;
20173;SDS011;10246;50.620;7.232;2022-09-21T01:08:37;3.37;;;2.07;;
20173;SDS011;10246;50.620;7.232;2022-09-21T01:11:10;2.87;;;2.13;;
20173;SDS011;10246;50.620;7.232;2022-09-21T01:13:53;2.97;;;2.10;;
20173;SDS011;10246;50.620;7.232;2022-09-21T01:16:37;2.60;;;2.13;;
20173;SDS011;10246;50.620;7.232;2022-09-21T01:19:14;3.03;;;1.97;;
20173;SDS011;10246;50.620;7.232;2022-09-21T01:21:52;3.53;;;2.00;;
20173;SDS011;10246;50.620;7.232;2022-09-21T01:27:41;3.70;;;2.00;;
20173;SDS011;10246;50.620;7.232;2022-09-21T01:30:18;4.97;;;2.90;;
20173;SDS011;10246;50.620;7.232;2022-09-21T01:32:47;4.00;;;2.40;;
20173;SDS011;10246;50.620;7.232;2022-09-21T01:35:20;3.10;;;2.57;;
20173;SDS011;10246;50.620;7.232;2022-09-21T01:37:51;4.93;;;3.13;;
20173;SDS011;10246;50.620;7.232;2022-09-21T01:40:21;4.03;;;3.40;;
20173;SDS011;10246;50.620;7.232;2022-09-21T01:42:51;4.10;;;3.10;;
20173;SDS011;10246;50.620;7.232;2022-09-21T01:45:24;4.57;;;3.23;;
20173;SDS011;10246;50.620;7.232;2022-09-21T01:47:54;4.33;;;3.20;;
20173;SDS011;10246;50.620;7.232;2022-09-21T01:50:24;6.77;;;2.87;;
20173;SDS011;10246;50.620;7.232;2022-09-21T01:52:57;3.57;;;2.67;;
20173;SDS011;10246;50.620;7.232;2022-09-21T01:55:28;3.50;;;2.63;;
20173;SDS011;10246;50.620;7.232;2022-09-21T01:58:02;3.13;;;2.63;;
20173;SDS011;10246;50.620;7.232;2022-09-21T02:00:33;4.03;;;2.23;;
20173;SDS011;10246;50.620;7.232;2022-09-21T02:03:03;3.20;;;1.97;;
20173;SDS011;10246;50.620;7.232;2022-09-21T02:05:34;4.17;;;1.70;;
20173;SDS011;10246;50.620;7.232;2022-09-21T02:08:01;1.97;;;1.57;;
20173;SDS011;10246;50.620;7.232;2022-09-21T02:10:32;4.30;;;1.83;;
20173;SDS011;10246;50.620;7.232;2022-09-21T02:13:04;4.70;;;2.10;;
20173;SDS011;10246;50.620;7.232;2022-09-21T02:15:38;2.87;;;1.80;;
20173;SDS011;10246;50.620;7.232;2022-09-21T02:18:15;2.90;;;1.83;;
20173;SDS011;10246;50.620;7.232;2022-09-21T02:20:48;2.43;;;1.83;;
20173;SDS011;10246;50.620;7.232;2022-09-21T02:23:22;2.57;;;2.07;;
20173;SDS011;10246;50.620;7.232;2022-09-21T02:25:58;2.87;;;2.00;;
20173;SDS011;10246;50.620;7.232;2022-09-21T02:28:33;4.87;;;2.70;;
20173;SDS011;10246;50.620;7.232;2022-09-21T02:31:10;4.77;;;2.20;;
20173;SDS011;10246;50.620;7.232;2022-09-21T02:33:42;2.87;;;2.13;;
20173;SDS011;10246;50.620;7.232;2022-09-21T02:36:15;3.00;;;2.20;;
20173;SDS011;10246;50.620;7.232;2022-09-21T02:38:48;2.57;;;1.87;;
20173;SDS011;10246;50.620;7.232;2022-09-21T02:41:19;2.33;;;2.00;;
20173;SDS011;10246;50.620;7.232;2022-09-21T02:43:51;2.40;;;1.93;;
20173;SDS011;10246;50.620;7.232;2022-09-21T02:46:27;3.17;;;1.97;;
20173;SDS011;10246;50.620;7.232;2022-09-21T02:49:00;8.30;;;1.73;;
20173;SDS011;10246;50.620;7.232;2022-09-21T02:51:34;4.13;;;2.00;;
20173;SDS011;10246;50.620;7.232;2022-09-21T02:54:04;3.57;;;2.30;;
20173;SDS011;10246;50.620;7.232;2022-09-21T02:56:33;3.27;;;2.23;;
20173;SDS011;10246;50.620;7.232;2022-09-21T02:59:00;2.97;;;2.00;;
20173;SDS011;10246;50.620;7.232;2022-09-21T03:01:31;3.17;;;2.20;;
20173;SDS011;10246;50.620;7.232;2022-09-21T03:03:59;3.50;;;2.30;;
20173;SDS011;10246;50.620;7.232;2022-09-21T03:06:26;4.70;;;2.50;;
20173;SDS011;10246;50.620;7.232;2022-09-21T03:08:53;4.07;;;2.30;;
20173;SDS011;10246;50.620;7.232;2022-09-21T03:11:22;3.20;;;2.30;;
20173;SDS011;10246;50.620;7.232;2022-09-21T03:13:50;3.70;;;2.40;;
20173;SDS011;10246;50.620;7.232;2022-09-21T03:16:17;5.13;;;2.90;;
20173;SDS011;10246;50.620;7.232;2022-09-21T03:18:45;3.37;;;2.70;;
20173;SDS011;10246;50.620;7.232;2022-09-21T03:21:12;4.90;;;3.20;;
20173;SDS011;10246;50.620;7.232;2022-09-21T03:23:39;5.80;;;3.40;;
20173;SDS011;10246;50.620;7.232;2022-09-21T03:26:06;3.10;;;2.80;;
20173;SDS011;10246;50.620;7.232;2022-09-21T03:28:33;4.30;;;3.47;;
20173;SDS011;10246;50.620;7.232;2022-09-21T03:31:00;5.37;;;3.33;;
20173;SDS011;10246;50.620;7.232;2022-09-21T03:33:26;5.77;;;3.40;;
20173;SDS011;10246;50.620;7.232;2022-09-21T03:35:54;3.53;;;3.10;;
20173;SDS011;10246;50.620;7.232;2022-09-21T03:38:21;6.27;;;3.60;;
20173;SDS011;10246;50.620;7.232;2022-09-21T03:40:48;3.93;;;2.73;;
20173;SDS011;10246;50.620;7.232;2022-09-21T03:43:16;3.53;;;2.83;;
20173;SDS011;10246;50.620;7.232;2022-09-21T03:45:43;5.77;;;2.90;;
20173;SDS011;10246;50.620;7.232;2022-09-21T03:48:11;4.33;;;2.47;;
20173;SDS011;10246;50.620;7.232;2022-09-21T03:50:39;2.80;;;2.30;;
20173;SDS011;10246;50.620;7.232;2022-09-21T03:53:07;3.40;;;2.50;;
20173;SDS011;10246;50.620;7.232;2022-09-21T03:55:35;4.20;;;2.43;;
20173;SDS011;10246;50.620;7.232;2022-09-21T03:58:03;4.13;;;2.47;;
20173;SDS011;10246;50.620;7.232;2022-09-21T04:00:30;3.10;;;2.13;;
20173;SDS011;10246;50.620;7.232;2022-09-21T04:02:57;3.03;;;2.20;;
20173;SDS011;10246;50.620;7.232;2022-09-21T04:05:24;3.60;;;2.40;;
20173;SDS011;10246;50.620;7.232;2022-09-21T04:07:52;5.00;;;2.67;;
20173;SDS011;10246;50.620;7.232;2022-09-21T04:10:22;7.53;;;3.93;;
20173;SDS011;10246;50.620;7.232;2022-09-21T04:12:51;4.23;;;2.90;;
20173;SDS011;10246;50.620;7.232;2022-09-21T04:15:21;4.50;;;2.97;;
20173;SDS011;10246;50.620;7.232;2022-09-21T04:17:49;4.50;;;2.60;;
20173;SDS011;10246;50.620;7.232;2022-09-21T04:20:17;4.80;;;2.87;;
20173;SDS011;10246;50.620;7.232;2022-09-21T04:22:44;5.13;;;2.23;;
20173;SDS011;10246;50.620;7.232;2022-09-21T04:25:11;4.90;;;2.20;;
20173;SDS011;10246;50.620;7.232;2022-09-21T04:27:40;4.17;;;2.50;;
20173;SDS011;10246;50.620;7.232;2022-09-21T04:30:09;3.50;;;2.23;;
20173;SDS011;10246;50.620;7.232;2022-09-21T04:32:36;2.60;;;2.10;;
20173;SDS011;10246;50.620;7.232;2022-09-21T04:35:04;6.40;;;2.50;;
20173;SDS011;10246;50.620;7.232;2022-09-21T04:37:31;4.73;;;2.60;;
20173;SDS011;10246;50.620;7.232;2022-09-21T04:39:59;4.87;;;2.67;;
20173;SDS011;10246;50.620;7.232;2022-09-21T04:42:26;4.13;;;2.37;;
20173;SDS011;10246;50.620;7.232;2022-09-21T04:44:55;4.40;;;2.43;;
20173;SDS011;10246;50.620;7.232;2022-09-21T04:47:21;4.47;;;2.53;;
20173;SDS011;10246;50.620;7.232;2022-09-21T04:49:49;5.57;;;2.40;;
20173;SDS011;10246;50.620;7.232;2022-09-21T04:52:16;3.50;;;2.30;;
20173;SDS011;10246;50.620;7.232;2022-09-21T04:54:51;3.87;;;2.40;;
20173;SDS011;10246;50.620;7.232;2022-09-21T04:57:24;3.10;;;2.37;;
20173;SDS011;10246;50.620;7.232;2022-09-21T04:59:51;3.80;;;2.57;;
20173;SDS011;10246;50.620;7.232;2022-09-21T05:05:04;3.73;;;2.80;;
20173;SDS011;10246;50.620;7.232;2022-09-21T05:07:42;4.53;;;2.50;;
20173;SDS011;10246;50.620;7.232;2022-09-21T05:10:15;4.10;;;2.50;;
20173;SDS011;10246;50.620;7.232;2022-09-21T05:12:44;4.03;;;2.57;;
20173;SDS011;10246;50.620;7.232;2022-09-21T05:15:22;2.70;;;2.20;;
20173;SDS011;10246;50.620;7.232;2022-09-21T05:17:51;3.10;;;2.50;;
20173;SDS011;10246;50.620;7.232;2022-09-21T05:20:18;2.73;;;2.30;;
20173;SDS011;10246;50.620;7.232;2022-09-21T05:22:45;3.80;;;2.43;;
20173;SDS011;10246;50.620;7.232;2022-09-21T05:25:11;4.70;;;3.50;;
20173;SDS011;10246;50.620;7.232;2022-09-21T05:27:38;5.40;;;3.30;;
20173;SDS011;10246;50.620;7.232;2022-09-21T05:30:05;5.20;;;3.77;;
20173;SDS011;10246;50.620;7.232;2022-09-21T05:32:37;4.13;;;3.40;;
20173;SDS011;10246;50.620;7.232;2022-09-21T05:35:11;5.33;;;3.50;;
20173;SDS011;10246;50.620;7.232;2022-09-21T05:37:48;6.07;;;3.47;;
20173;SDS011;10246;50.620;7.232;2022-09-21T05:40:21;4.10;;;3.40;;
20173;SDS011;10246;50.620;7.232;2022-09-21T05:42:49;4.40;;;3.20;;
20173;SDS011;10246;50.620;7.232;2022-09-21T05:45:17;4.47;;;2.97;;
20173;SDS011;10246;50.620;7.232;2022-09-21T05:47:55;3.73;;;3.03;;
20173;SDS011;10246;50.620;7.232;2022-09-21T05:50:35;5.07;;;3.23;;
20173;SDS011;10246;50.620;7.232;2022-09-21T05:53:11;4.67;;;3.60;;
20173;SDS011;10246;50.620;7.232;2022-09-21T05:55:47;4.40;;;3.37;;
20173;SDS011;10246;50.620;7.232;2022-09-21T05:58:21;4.10;;;3.33;;
20173;SDS011;10246;50.620;7.232;2022-09-21T06:00:59;4.77;;;3.20;;
20173;SDS011;10246;50.620;7.232;2022-09-21T06:03:37;6.43;;;3.10;;
20173;SDS011;10246;50.620;7.232;2022-09-21T06:06:06;4.63;;;3.83;;
20173;SDS011;10246;50.620;7.232;2022-09-21T06:08:34;4.23;;;3.00;;
20173;SDS011;10246;50.620;7.232;2022-09-21T06:11:01;6.23;;;3.53;;
20173;SDS011;10246;50.620;7.232;2022-09-21T06:13:27;4.60;;;3.40;;
20173;SDS011;10246;50.620;7.232;2022-09-21T06:15:55;4.53;;;3.47;;
20173;SDS011;10246;50.620;7.232;2022-09-21T06:18:23;4.67;;;3.40;;
20173;SDS011;10246;50.620;7.232;2022-09-21T06:20:49;3.77;;;3.30;;
20173;SDS011;10246;50.620;7.232;2022-09-21T06:23:17;5.00;;;3.37;;
20173;SDS011;10246;50.620;7.232;2022-09-21T06:25:49;3.80;;;3.17;;
20173;SDS011;10246;50.620;7.232;2022-09-21T06:28:16;4.13;;;3.37;;
20173;SDS011;10246;50.620;7.232;2022-09-21T06:30:43;5.80;;;3.60;;
20173;SDS011;10246;50.620;7.232;2022-09-21T06:33:15;4.10;;;3.17;;
20173;SDS011;10246;50.620;7.232;2022-09-21T06:35:50;5.57;;;3.77;;
20173;SDS011;10246;50.620;7.232;2022-09-21T06:38:18;6.03;;;4.17;;
20173;SDS011;10246;50.620;7.232;2022-09-21T06:40:46;6.03;;;4.23;;
20173;SDS011;10246;50.620;7.232;2022-09-21T06:43:12;5.57;;;4.00;;
20173;SDS011;10246;50.620;7.232;2022-09-21T06:45:39;5.33;;;4.07;;
20173;SDS011;10246;50.620;7.232;2022-09-21T06:48:07;6.30;;;4.33;;
20173;SDS011;10246;50.620;7.232;2022-09-21T06:50:34;6.10;;;3.87;;
20173;SDS011;10246;50.620;7.232;2022-09-21T06:53:01;4.40;;;4.00;;
20173;SDS011;10246;50.620;7.232;2022-09-21T06:55:31;7.37;;;4.03;;
20173;SDS011;10246;50.620;7.232;2022-09-21T06:57:59;5.57;;;3.73;;
20173;SDS011;10246;50.620;7.232;2022-09-21T07:00:26;5.30;;;4.10;;
20173;SDS011;10246;50.620;7.232;2022-09-21T07:02:53;8.67;;;4.90;;
20173;SDS011;10246;50.620;7.232;2022-09-21T07:05:20;6.20;;;4.40;;
20173;SDS011;10246;50.620;7.232;2022-09-21T07:07:47;7.00;;;4.80;;
20173;SDS011;10246;50.620;7.232;2022-09-21T07:10:13;7.30;;;5.03;;
20173;SDS011;10246;50.620;7.232;2022-09-21T07:12:42;5.97;;;4.63;;
20173;SDS011;10246;50.620;7.232;2022-09-21T07:15:09;7.53;;;5.57;;
20173;SDS011;10246;50.620;7.232;2022-09-21T07:17:37;8.03;;;5.40;;
20173;SDS011;10246;50.620;7.232;2022-09-21T07:20:05;7.60;;;5.47;;
20173;SDS011;10246;50.620;7.232;2022-09-21T07:22:33;7.83;;;5.50;;
20173;SDS011;10246;50.620;7.232;2022-09-21T07:25:00;10.60;;;6.97;;
20173;SDS011;10246;50.620;7.232;2022-09-21T07:27:27;10.37;;;7.03;;
20173;SDS011;10246;50.620;7.232;2022-09-21T07:29:57;10.03;;;6.53;;
20173;SDS011;10246;50.620;7.232;2022-09-21T07:32:23;12.50;;;7.50;;
20173;SDS011;10246;50.620;7.232;2022-09-21T07:34:51;10.30;;;6.87;;
20173;SDS011;10246;50.620;7.232;2022-09-21T07:37:20;12.70;;;7.90;;
20173;SDS011;10246;50.620;7.232;2022-09-21T07:39:47;22.73;;;11.43;;
20173;SDS011;10246;50.620;7.232;2022-09-21T07:42:14;17.60;;;9.90;;
20173;SDS011;10246;50.620;7.232;2022-09-21T07:44:41;17.93;;;9.63;;
20173;SDS011;10246;50.620;7.232;2022-09-21T07:47:10;14.60;;;9.23;;
20173;SDS011;10246;50.620;7.232;2022-09-21T07:49:37;16.93;;;9.93;;
20173;SDS011;10246;50.620;7.232;2022-09-21T07:52:04;20.80;;;11.33;;
20173;SDS011;10246;50.620;7.232;2022-09-21T07:54:32;21.57;;;11.53;;
20173;SDS011;10246;50.620;7.232;2022-09-21T07:56:59;23.93;;;12.00;;
20173;SDS011;10246;50.620;7.232;2022-09-21T07:59:43;22.03;;;12.60;;
20173;SDS011;10246;50.620;7.232;2022-09-21T08:02:12;21.03;;;11.13;;
20173;SDS011;10246;50.620;7.232;2022-09-21T08:04:38;23.03;;;12.87;;
20173;SDS011;10246;50.620;7.232;2022-09-21T08:07:05;23.00;;;12.70;;
20173;SDS011;10246;50.620;7.232;2022-09-21T08:09:32;23.57;;;12.77;;
20173;SDS011;10246;50.620;7.232;2022-09-21T08:11:59;22.73;;;12.73;;
20173;SDS011;10246;50.620;7.232;2022-09-21T08:14:26;27.87;;;13.17;;
20173;SDS011;10246;50.620;7.232;2022-09-21T08:16:53;21.83;;;12.20;;
20173;SDS011;10246;50.620;7.232;2022-09-21T08:19:21;21.13;;;11.57;;
20173;SDS011;10246;50.620;7.232;2022-09-21T08:21:49;24.23;;;12.03;;
20173;SDS011;10246;50.620;7.232;2022-09-21T08:24:16;20.83;;;11.50;;
20173;SDS011;10246;50.620;7.232;2022-09-21T08:26:43;19.37;;;11.17;;
20173;SDS011;10246;50.620;7.232;2022-09-21T08:29:10;21.03;;;12.77;;
20173;SDS011;10246;50.620;7.232;2022-09-21T08:31:38;21.77;;;11.70;;
20173;SDS011;10246;50.620;7.232;2022-09-21T08:34:05;25.70;;;12.97;;
20173;SDS011;10246;50.620;7.232;2022-09-21T08:36:33;21.00;;;13.23;;
20173;SDS011;10246;50.620;7.232;2022-09-21T08:39:00;22.63;;;12.23;;
20173;SDS011;10246;50.620;7.232;2022-09-21T08:41:31;20.60;;;11.30;;
20173;SDS011;10246;50.620;7.232;2022-09-21T08:44:10;20.03;;;11.80;;
20173;SDS011;10246;50.620;7.232;2022-09-21T08:46:40;22.50;;;13.40;;
20173;SDS011;10246;50.620;7.232;2022-09-21T08:49:10;22.40;;;12.30;;
20173;SDS011;10246;50.620;7.232;2022-09-21T08:51:45;24.67;;;13.60;;
20173;SDS011;10246;50.620;7.232;2022-09-21T08:54:15;19.40;;;12.13;;
20173;SDS011;10246;50.620;7.232;2022-09-21T08:56:48;21.90;;;12.63;;
20173;SDS011;10246;50.620;7.232;2022-09-21T08:59:15;29.83;;;13.87;;
20173;SDS011;10246;50.620;7.232;2022-09-21T09:01:49;23.93;;;13.63;;
20173;SDS011;10246;50.620;7.232;2022-09-21T09:04:33;26.37;;;13.20;;
20173;SDS011;10246;50.620;7.232;2022-09-21T09:07:18;20.80;;;12.57;;
20173;SDS011;10246;50.620;7.232;2022-09-21T09:09:59;19.00;;;11.57;;
20173;SDS011;10246;50.620;7.232;2022-09-21T09:12:43;22.97;;;12.13;;
20173;SDS011;10246;50.620;7.232;2022-09-21T09:15:27;22.47;;;12.80;;
20173;SDS011;10246;50.620;7.232;2022-09-21T09:18:02;24.10;;;13.17;;
20173;SDS011;10246;50.620;7.232;2022-09-21T09:20:35;20.50;;;13.07;;
20173;SDS011;10246;50.620;7.232;2022-09-21T09:23:08;17.13;;;11.30;;
20173;SDS011;10246;50.620;7.232;2022-09-21T09:25:38;19.43;;;12.47;;
20173;SDS011;10246;50.620;7.232;2022-09-21T09:28:16;23.43;;;13.37;;
20173;SDS011;10246;50.620;7.232;2022-09-21T09:30:55;26.23;;;13.60;;
20173;SDS011;10246;50.620;7.232;2022-09-21T09:33:26;21.63;;;13.80;;
20173;SDS011;10246;50.620;7.232;2022-09-21T09:35:59;22.73;;;13.40;;
20173;SDS011;10246;50.620;7.232;2022-09-21T09:38:31;24.00;;;13.40;;
20173;SDS011;10246;50.620;7.232;2022-09-21T09:41:06;23.47;;;13.27;;
20173;SDS011;10246;50.620;7.232;2022-09-21T09:43:55;26.03;;;14.70;;
20173;SDS011;10246;50.620;7.232;2022-09-21T09:46:31;27.20;;;14.80;;
20173;SDS011;10246;50.620;7.232;2022-09-21T09:49:10;22.57;;;13.83;;
20173;SDS011;10246;50.620;7.232;2022-09-21T09:51:42;20.20;;;12.80;;
20173;SDS011;10246;50.620;7.232;2022-09-21T09:54:13;18.97;;;12.37;;
20173;SDS011;10246;50.620;7.232;2022-09-21T09:56:41;21.67;;;12.47;;
20173;SDS011;10246;50.620;7.232;2022-09-21T09:59:09;18.13;;;11.17;;
20173;SDS011;10246;50.620;7.232;2022-09-21T10:01:42;18.97;;;11.90;;
20173;SDS011;10246;50.620;7.232;2022-09-21T10:04:11;19.57;;;12.23;;
20173;SDS011;10246;50.620;7.232;2022-09-21T10:06:39;20.67;;;12.90;;
20173;SDS011;10246;50.620;7.232;2022-09-21T10:09:19;19.37;;;10.43;;
20173;SDS011;10246;50.620;7.232;2022-09-21T10:11:49;18.87;;;11.33;;
20173;SDS011;10246;50.620;7.232;2022-09-21T10:14:18;19.60;;;10.83;;
20173;SDS011;10246;50.620;7.232;2022-09-21T10:16:47;21.27;;;10.77;;
20173;SDS011;10246;50.620;7.232;2022-09-21T10:19:18;16.10;;;10.43;;
20173;SDS011;10246;50.620;7.232;2022-09-21T10:21:47;13.60;;;8.93;;
20173;SDS011;10246;50.620;7.232;2022-09-21T10:24:21;15.30;;;8.80;;
20173;SDS011;10246;50.620;7.232;2022-09-21T10:26:51;12.37;;;8.37;;
20173;SDS011;10246;50.620;7.232;2022-09-21T10:29:30;10.90;;;7.90;;
20173;SDS011;10246;50.620;7.232;2022-09-21T10:32:04;13.60;;;8.00;;
20173;SDS011;10246;50.620;7.232;2022-09-21T10:37:27;11.70;;;7.20;;
20173;SDS011;10246;50.620;7.232;2022-09-21T10:39:59;10.90;;;6.93;;
20173;SDS011;10246;50.620;7.232;2022-09-21T10:42:26;11.00;;;6.17;;
20173;SDS011;10246;50.620;7.232;2022-09-21T10:45:03;8.83;;;6.17;;
20173;SDS011;10246;50.620;7.232;2022-09-21T10:47:33;8.93;;;5.67;;
20173;SDS011;10246;50.620;7.232;2022-09-21T10:50:03;9.47;;;5.47;;
20173;SDS011;10246;50.620;7.232;2022-09-21T10:52:33;9.60;;;4.70;;
20173;SDS011;10246;50.620;7.232;2022-09-21T10:55:13;9.13;;;5.03;;
20173;SDS011;10246;50.620;7.232;2022-09-21T10:57:42;8.50;;;4.47;;
20173;SDS011;10246;50.620;7.232;2022-09-21T11:00:25;10.87;;;4.67;;
20173;SDS011;10246;50.620;7.232;2022-09-21T11:05:54;5.60;;;3.60;;
20173;SDS011;10246;50.620;7.232;2022-09-21T11:08:23;7.90;;;2.90;;
20173;SDS011;10246;50.620;7.232;2022-09-21T11:11:02;5.43;;;2.37;;
20173;SDS011;10246;50.620;7.232;2022-09-21T11:13:39;4.67;;;2.40;;
20173;SDS011;10246;50.620;7.232;2022-09-21T11:16:13;5.17;;;2.87;;
20173;SDS011;10246;50.620;7.232;2022-09-21T11:18:47;4.27;;;2.70;;
20173;SDS011;10246;50.620;7.232;2022-09-21T11:21:22;7.07;;;3.20;;
20173;SDS011;10246;50.620;7.232;2022-09-21T11:24:00;4.87;;;2.70;;
20173;SDS011;10246;50.620;7.232;2022-09-21T11:26:36;4.90;;;2.40;;
20173;SDS011;10246;50.620;7.232;2022-09-21T11:29:08;2.50;;;2.13;;
20173;SDS011;10246;50.620;7.232;2022-09-21T11:31:40;5.47;;;2.40;;
20173;SDS011;10246;50.620;7.232;2022-09-21T11:34:27;4.57;;;2.50;;
20173;SDS011;10246;50.620;7.232;2022-09-21T11:37:06;3.20;;;1.90;;
20173;SDS011;10246;50.620;7.232;2022-09-21T11:39:47;4.70;;;1.83;;
20173;SDS011;10246;50.620;7.232;2022-09-21T11:42:30;2.83;;;1.87;;
20173;SDS011;10246;50.620;7.232;2022-09-21T11:45:12;4.43;;;2.33;;
20173;SDS011;10246;50.620;7.232;2022-09-21T11:47:53;4.07;;;2.10;;
20173;SDS011;10246;50.620;7.232;2022-09-21T11:50:33;5.13;;;2.17;;
20173;SDS011;10246;50.620;7.232;2022-09-21T11:53:18;3.73;;;2.33;;
20173;SDS011;10246;50.620;7.232;2022-09-21T11:55:55;5.07;;;2.30;;
20173;SDS011;10246;50.620;7.232;2022-09-21T11:58:36;3.80;;;2.00;;
20173;SDS011;10246;50.620;7.232;2022-09-21T12:01:12;3.00;;;2.00;;
20173;SDS011;10246;50.620;7.232;2022-09-21T12:03:51;4.47;;;1.53;;
20173;SDS011;10246;50.620;7.232;2022-09-21T12:06:32;3.33;;;1.80;;
20173;SDS011;10246;50.620;7.232;2022-09-21T12:09:24;3.73;;;1.70;;
20173;SDS011;10246;50.620;7.232;2022-09-21T12:12:13;2.07;;;1.60;;
20173;SDS011;10246;50.620;7.232;2022-09-21T12:14:47;4.00;;;1.50;;
20173;SDS011;10246;50.620;7.232;2022-09-21T12:17:22;5.07;;;2.00;;
20173;SDS011;10246;50.620;7.232;2022-09-21T12:19:57;3.87;;;1.77;;
20173;SDS011;10246;50.620;7.232;2022-09-21T12:22:31;2.27;;;1.30;;
20173;SDS011;10246;50.620;7.232;2022-09-21T12:25:01;2.60;;;1.57;;
20173;SDS011;10246;50.620;7.232;2022-09-21T12:27:38;2.27;;;1.10;;
20173;SDS011;10246;50.620;7.232;2022-09-21T12:30:11;2.37;;;1.30;;
20173;SDS011;10246;50.620;7.232;2022-09-21T12:32:43;3.37;;;1.30;;
20173;SDS011;10246;50.620;7.232;2022-09-21T12:35:18;2.63;;;1.27;;
20173;SDS011;10246;50.620;7.232;2022-09-21T12:37:50;1.93;;;1.10;;
20173;SDS011;10246;50.620;7.232;2022-09-21T12:40:22;4.30;;;1.40;;
20173;SDS011;10246;50.620;7.232;2022-09-21T12:42:57;1.93;;;1.10;;
20173;SDS011;10246;50.620;7.232;2022-09-21T12:45:32;0.70;;;0.70;;
20173;SDS011;10246;50.620;7.232;2022-09-21T12:48:04;1.57;;;0.77;;
20173;SDS011;10246;50.620;7.232;2022-09-21T12:50:37;1.67;;;0.70;;
20173;SDS011;10246;50.620;7.232;2022-09-21T12:53:09;1.40;;;0.60;;
20173;SDS011;10246;50.620;7.232;2022-09-21T12:55:44;2.70;;;0.90;;
20173;SDS011;10246;50.620;7.232;2022-09-21T12:58:22;2.03;;;0.80;;
20173;SDS011;10246;50.620;7.232;2022-09-21T13:01:01;1.80;;;0.70;;
20173;SDS011;10246;50.620;7.232;2022-09-21T13:03:39;1.23;;;0.80;;
20173;SDS011;10246;50.620;7.232;2022-09-21T13:06:26;1.67;;;0.80;;
20173;SDS011;10246;50.620;7.232;2022-09-21T13:09:05;2.43;;;0.70;;
20173;SDS011;10246;50.620;7.232;2022-09-21T13:11:47;1.20;;;0.77;;
20173;SDS011;10246;50.620;7.232;2022-09-21T13:14:16;1.43;;;0.70;;
20173;SDS011;10246;50.620;7.232;2022-09-21T13:16:45;2.23;;;0.93;;
20173;SDS011;10246;50.620;7.232;2022-09-21T13:19:22;1.43;;;1.00;;
20173;SDS011;10246;50.620;7.232;2022-09-21T13:24:37;1.97;;;0.70;;
20173;SDS011;10246;50.620;7.232;2022-09-21T13:27:06;1.00;;;0.67;;
20173;SDS011;10246;50.620;7.232;2022-09-21T13:29:34;3.80;;;0.87;;
20173;SDS011;10246;50.620;7.232;2022-09-21T13:32:06;2.23;;;0.70;;
20173;SDS011;10246;50.620;7.232;2022-09-21T13:34:47;2.20;;;0.63;;
20173;SDS011;10246;50.620;7.232;2022-09-21T13:37:25;1.83;;;1.17;;
20173;SDS011;10246;50.620;7.232;2022-09-21T13:40:28;1.83;;;0.87;;
20173;SDS011;10246;50.620;7.232;2022-09-21T13:43:21;3.33;;;0.83;;
20173;SDS011;10246;50.620;7.232;2022-09-21T13:52:05;0.63;;;0.63;;
20173;SDS011;10246;50.620;7.232;2022-09-21T13:54:47;1.30;;;0.70;;
20173;SDS011;10246;50.620;7.232;2022-09-21T13:57:18;0.77;;;0.70;;
20173;SDS011;10246;50.620;7.232;2022-09-21T14:00:00;2.40;;;0.70;;
20173;SDS011;10246;50.620;7.232;2022-09-21T14:02:52;2.20;;;0.90;;
20173;SDS011;10246;50.620;7.232;2022-09-21T14:05:24;2.80;;;0.77;;
20173;SDS011;10246;50.620;7.232;2022-09-21T14:07:56;2.00;;;0.90;;
20173;SDS011;10246;50.620;7.232;2022-09-21T14:10:25;1.63;;;0.70;;
20173;SDS011;10246;50.620;7.232;2022-09-21T14:12:56;2.00;;;0.83;;
20173;SDS011;10246;50.620;7.232;2022-09-21T14:15:33;2.10;;;0.80;;
20173;SDS011;10246;50.620;7.232;2022-09-21T14:21:16;1.43;;;0.87;;
20173;SDS011;10246;50.620;7.232;2022-09-21T14:26:34;1.97;;;0.70;;
20173;SDS011;10246;50.620;7.232;2022-09-21T14:29:12;1.77;;;0.60;;
20173;SDS011;10246;50.620;7.232;2022-09-21T14:31:45;1.63;;;0.50;;
20173;SDS011;10246;50.620;7.232;2022-09-21T14:34:16;0.80;;;0.63;;
20173;SDS011;10246;50.620;7.232;2022-09-21T14:36:49;1.07;;;0.50;;
20173;SDS011;10246;50.620;7.232;2022-09-21T14:39:18;1.67;;;0.80;;
20173;SDS011;10246;50.620;7.232;2022-09-21T14:41:49;0.83;;;0.63;;
20173;SDS011;10246;50.620;7.232;2022-09-21T14:44:19;1.00;;;0.67;;
20173;SDS011;10246;50.620;7.232;2022-09-21T14:46:57;1.87;;;0.60;;
20173;SDS011;10246;50.620;7.232;2022-09-21T14:49:49;0.70;;;0.60;;
20173;SDS011;10246;50.620;7.232;2022-09-21T14:52:32;0.87;;;0.43;;
20173;SDS011;10246;50.620;7.232;2022-09-21T14:55:15;1.13;;;0.70;;
20173;SDS011;10246;50.620;7.232;2022-09-21T14:58:01;2.47;;;0.47;;
20173;SDS011;10246;50.620;7.232;2022-09-21T15:00:46;2.43;;;0.60;;
20173;SDS011;10246;50.620;7.232;2022-09-21T15:03:28;2.17;;;0.57;;
20173;SDS011;10246;50.620;7.232;2022-09-21T15:06:09;1.77;;;0.73;;
20173;SDS011;10246;50.620;7.232;2022-09-21T15:09:02;0.83;;;0.60;;
20173;SDS011;10246;50.620;7.232;2022-09-21T15:12:06;0.90;;;0.37;;
20173;SDS011;10246;50.620;7.232;2022-09-21T15:14:40;0.73;;;0.50;;
20173;SDS011;10246;50.620;7.232;2022-09-21T15:17:21;1.33;;;0.60;;
20173;SDS011;10246;50.620;7.232;2022-09-21T15:19:49;1.07;;;0.50;;
20173;SDS011;10246;50.620;7.232;2022-09-21T15:22:17;1.60;;;0.60;;
20173;SDS011;10246;50.620;7.232;2022-09-21T15:24:50;1.43;;;0.63;;
20173;SDS011;10246;50.620;7.232;2022-09-21T15:27:19;2.07;;;0.60;;
20173;SDS011;10246;50.620;7.232;2022-09-21T15:29:48;1.37;;;0.80;;
20173;SDS011;10246;50.620;7.232;2022-09-21T15:32:21;1.03;;;0.70;;
20173;SDS011;10246;50.620;7.232;2022-09-21T15:34:57;0.60;;;0.60;;
20173;SDS011;10246;50.620;7.232;2022-09-21T15:37:26;1.07;;;0.90;;
20173;SDS011;10246;50.620;7.232;2022-09-21T15:40:02;1.00;;;0.60;;